createdAt,value
2022-08-23T00:02:26.478Z,4.65
2022-08-23T00:05:09.392Z,4.78
2022-08-23T00:07:38.873Z,4.50
2022-08-23T00:10:07.484Z,4.18
2022-08-23T00:12:35.232Z,4.55
2022-08-23T00:15:02.929Z,4.10
2022-08-23T00:17:33.297Z,3.58
2022-08-23T00:20:03.502Z,4.03
2022-08-23T00:22:31.229Z,3.80
2022-08-23T00:24:59.222Z,4.18
2022-08-23T00:27:26.975Z,4.78
2022-08-23T00:29:55.689Z,4.45
2022-08-23T00:32:24.305Z,5.13
2022-08-23T00:34:52.016Z,4.78
2022-08-23T00:37:21.453Z,4.38
2022-08-23T00:39:49.382Z,4.30
2022-08-23T00:42:43.804Z,4.57
2022-08-23T00:45:30.844Z,4.82
2022-08-23T00:47:59.057Z,4.57
2022-08-23T00:50:29.132Z,4.53
2022-08-23T00:53:03.198Z,4.13
2022-08-23T00:55:30.917Z,3.90
2022-08-23T00:57:59.401Z,4.20
2022-08-23T01:00:27.717Z,5.22
2022-08-23T01:02:57.063Z,3.90
2022-08-23T01:05:26.025Z,4.32
2022-08-23T01:07:55.415Z,3.72
2022-08-23T01:10:27.898Z,4.18
2022-08-23T01:13:00.418Z,4.13
2022-08-23T01:15:30.033Z,4.40
2022-08-23T01:18:02.656Z,4.38
2022-08-23T01:20:33.663Z,4.70
2022-08-23T01:23:03.209Z,3.80
2022-08-23T01:25:33.620Z,5.80
2022-08-23T01:28:01.719Z,3.85
2022-08-23T01:30:31.431Z,4.63
2022-08-23T01:33:00.741Z,5.18
2022-08-23T01:35:32.253Z,4.72
2022-08-23T01:38:00.216Z,5.20
2022-08-23T01:40:29.517Z,4.70
2022-08-23T01:42:58.929Z,4.57
2022-08-23T01:45:27.378Z,4.55
2022-08-23T01:47:55.230Z,4.22
2022-08-23T01:50:25.581Z,4.65
2022-08-23T01:52:53.308Z,4.95
2022-08-23T01:55:22.833Z,5.00
2022-08-23T01:57:53.194Z,5.40
2022-08-23T02:00:23.628Z,5.80
2022-08-23T02:02:52.402Z,5.13
2022-08-23T02:05:20.514Z,5.88
2022-08-23T02:07:48.658Z,5.47
2022-08-23T02:10:18.518Z,5.32
2022-08-23T02:12:46.705Z,6.28
2022-08-23T02:15:18.084Z,7.07
2022-08-23T02:17:49.544Z,6.55
2022-08-23T02:20:17.262Z,5.93
2022-08-23T02:22:45.033Z,7.03
2022-08-23T02:25:12.830Z,7.30
2022-08-23T02:27:42.915Z,8.23
2022-08-23T02:30:13.367Z,8.43
2022-08-23T02:32:42.489Z,8.15
2022-08-23T02:35:12.469Z,7.90
2022-08-23T02:37:40.596Z,9.07
2022-08-23T02:40:08.728Z,7.57
2022-08-23T02:42:36.695Z,8.02
2022-08-23T02:45:04.757Z,8.98
2022-08-23T02:47:38.558Z,8.85
2022-08-23T02:50:15.760Z,8.88
2022-08-23T02:52:44.854Z,8.43
2022-08-23T02:55:12.862Z,9.27
2022-08-23T02:57:41.000Z,9.00
2022-08-23T03:00:11.825Z,9.05
2022-08-23T03:02:40.503Z,8.88
2022-08-23T03:05:09.364Z,9.05
2022-08-23T03:07:38.532Z,10.02
2022-08-23T03:10:07.261Z,8.18
2022-08-23T03:12:37.590Z,8.55
2022-08-23T03:15:06.384Z,10.60
2022-08-23T03:17:34.252Z,9.15
2022-08-23T03:20:02.821Z,8.98
2022-08-23T03:22:32.565Z,8.27
2022-08-23T03:25:01.616Z,8.50
2022-08-23T03:27:44.662Z,8.75
2022-08-23T03:30:19.301Z,8.00
2022-08-23T03:32:53.339Z,8.52
2022-08-23T03:35:21.976Z,7.72
2022-08-23T03:37:54.701Z,7.70
2022-08-23T03:40:25.310Z,7.70
2022-08-23T03:42:53.444Z,7.85
2022-08-23T03:45:24.368Z,7.95
2022-08-23T03:47:52.216Z,7.35
2022-08-23T03:50:20.764Z,8.00
2022-08-23T03:52:49.106Z,7.25
2022-08-23T03:55:16.972Z,7.88
2022-08-23T03:57:49.089Z,7.75
2022-08-23T04:00:20.315Z,7.70
2022-08-23T04:02:49.546Z,7.30
2022-08-23T04:05:19.356Z,7.57
2022-08-23T04:08:10.774Z,7.18
2022-08-23T04:10:41.524Z,6.95
2022-08-23T04:13:11.441Z,7.05
2022-08-23T04:15:39.097Z,6.95
2022-08-23T04:18:09.390Z,6.93
2022-08-23T04:20:37.989Z,7.50
2022-08-23T04:23:06.638Z,7.75
2022-08-23T04:25:45.625Z,7.80
2022-08-23T04:28:14.859Z,7.65
2022-08-23T04:30:46.950Z,7.53
2022-08-23T04:33:18.006Z,6.45
2022-08-23T04:35:46.744Z,7.47
2022-08-23T04:38:24.736Z,6.80
2022-08-23T04:41:12.703Z,7.18
2022-08-23T04:43:43.954Z,7.80
2022-08-23T04:46:15.422Z,6.90
2022-08-23T04:48:45.253Z,7.43
2022-08-23T04:51:15.515Z,7.50
2022-08-23T04:53:44.045Z,7.13
2022-08-23T04:56:38.357Z,7.03
2022-08-23T04:59:07.684Z,7.05
2022-08-23T05:01:42.825Z,7.72
2022-08-23T05:04:10.742Z,8.02
2022-08-23T05:06:41.013Z,6.30
2022-08-23T05:09:08.709Z,7.35
2022-08-23T05:11:38.489Z,7.65
2022-08-23T05:14:07.813Z,6.55
2022-08-23T05:16:35.693Z,6.70
2022-08-23T05:19:09.467Z,6.97
2022-08-23T05:21:43.426Z,7.15
2022-08-23T05:24:13.780Z,7.05
2022-08-23T05:26:43.201Z,6.93
2022-08-23T05:29:12.553Z,7.00
2022-08-23T05:31:50.389Z,7.90
2022-08-23T05:34:22.501Z,7.55
2022-08-23T05:36:55.445Z,6.78
2022-08-23T05:39:35.971Z,7.53
2022-08-23T05:42:05.685Z,7.30
2022-08-23T05:44:36.634Z,7.43
2022-08-23T05:47:11.251Z,7.97
2022-08-23T05:49:46.119Z,7.50
2022-08-23T05:52:14.896Z,6.93
2022-08-23T05:54:44.559Z,7.43
2022-08-23T05:57:50.099Z,7.18
2022-08-23T06:00:19.244Z,7.72
2022-08-23T06:02:46.865Z,7.10
2022-08-23T06:05:15.115Z,8.13
2022-08-23T06:07:44.686Z,7.38
2022-08-23T06:10:15.825Z,7.25
2022-08-23T06:12:47.605Z,6.82
2022-08-23T06:15:16.065Z,6.93
2022-08-23T06:17:45.222Z,6.55
2022-08-23T06:20:15.766Z,6.35
2022-08-23T06:23:01.408Z,6.95
2022-08-23T06:25:29.989Z,6.82
2022-08-23T06:28:07.768Z,6.88
2022-08-23T06:30:39.811Z,7.07
2022-08-23T06:33:38.209Z,6.82
2022-08-23T06:36:36.488Z,7.57
2022-08-23T06:39:14.248Z,6.35
2022-08-23T06:42:00.652Z,6.28
2022-08-23T06:44:31.400Z,6.00
2022-08-23T06:47:31.633Z,5.93
2022-08-23T06:50:01.541Z,5.82
2022-08-23T06:52:52.881Z,5.50
2022-08-23T06:55:39.722Z,5.43
2022-08-23T06:58:39.844Z,6.18
2022-08-23T07:01:44.182Z,6.28
2022-08-23T07:04:19.550Z,1.60
2022-08-23T07:07:19.242Z,0.88
2022-08-23T07:09:46.977Z,0.88
2022-08-23T07:12:14.701Z,1.33
2022-08-23T07:14:44.244Z,0.70
2022-08-23T07:17:15.232Z,2.10
2022-08-23T07:19:44.102Z,1.42
2022-08-23T07:22:12.261Z,3.53
2022-08-23T07:24:42.910Z,3.17
2022-08-23T07:27:12.385Z,3.00
2022-08-23T07:29:57.962Z,2.50
2022-08-23T07:32:25.858Z,3.05
2022-08-23T07:34:56.559Z,2.75
2022-08-23T07:37:24.973Z,3.03
2022-08-23T07:39:57.437Z,2.67
2022-08-23T07:42:26.555Z,2.45
2022-08-23T07:44:56.313Z,2.90
2022-08-23T07:47:28.491Z,2.40
2022-08-23T07:49:57.729Z,2.72
2022-08-23T07:52:26.249Z,2.80
2022-08-23T07:54:55.466Z,2.47
2022-08-23T07:57:41.395Z,2.67
2022-08-23T08:00:34.355Z,2.72
2022-08-23T08:03:21.318Z,2.60
2022-08-23T08:06:16.333Z,3.00
2022-08-23T08:08:44.198Z,2.45
2022-08-23T08:11:16.465Z,3.10
2022-08-23T08:13:45.059Z,3.15
2022-08-23T08:16:20.484Z,3.65
2022-08-23T08:18:48.277Z,3.20
2022-08-23T08:21:34.257Z,2.03
2022-08-23T08:24:16.278Z,1.90
2022-08-23T08:27:00.009Z,2.33
2022-08-23T08:29:27.777Z,2.08
2022-08-23T08:31:55.601Z,1.75
2022-08-23T08:34:24.224Z,2.10
2022-08-23T08:36:53.725Z,2.40
2022-08-23T08:39:24.517Z,1.77
2022-08-23T08:42:04.606Z,1.55
2022-08-23T08:44:41.368Z,1.90
2022-08-23T08:47:14.097Z,2.20
2022-08-23T08:49:45.346Z,1.80
2022-08-23T08:52:16.564Z,1.55
2022-08-23T08:54:48.399Z,1.90
2022-08-23T08:57:22.648Z,2.08
2022-08-23T08:59:59.608Z,1.58
2022-08-23T09:02:33.179Z,1.88
2022-08-23T09:05:08.271Z,1.65
2022-08-23T09:07:43.115Z,1.50
2022-08-23T09:10:19.075Z,1.38
2022-08-23T09:13:05.311Z,1.63
2022-08-23T09:15:38.293Z,0.60
2022-08-23T09:18:09.799Z,1.20
2022-08-23T09:20:39.142Z,1.48
2022-08-23T09:23:09.008Z,1.63
2022-08-23T09:25:39.081Z,1.75
2022-08-23T09:28:17.115Z,1.75
2022-08-23T09:30:49.369Z,1.80
2022-08-23T09:33:19.781Z,1.63
2022-08-23T09:36:03.182Z,1.30
2022-08-23T09:38:31.911Z,1.33
2022-08-23T09:41:19.869Z,1.20
2022-08-23T09:43:52.349Z,1.27
2022-08-23T09:46:30.424Z,1.25
2022-08-23T09:49:01.081Z,1.50
2022-08-23T09:51:35.956Z,1.13
2022-08-23T09:54:12.134Z,1.23
2022-08-23T09:56:41.515Z,0.95
2022-08-23T09:59:22.368Z,1.30
2022-08-23T10:02:01.943Z,1.83
2022-08-23T10:04:41.013Z,1.48
2022-08-23T10:07:24.260Z,0.95
2022-08-23T10:09:54.793Z,1.48
2022-08-23T10:12:23.834Z,1.20
2022-08-23T10:14:51.797Z,1.42
2022-08-23T10:17:34.029Z,1.25
2022-08-23T10:20:09.872Z,1.90
2022-08-23T10:22:43.119Z,0.73
2022-08-23T10:25:27.918Z,0.80
2022-08-23T10:28:14.868Z,0.98
2022-08-23T10:30:49.841Z,1.13
2022-08-23T10:33:21.537Z,0.30
2022-08-23T10:35:58.659Z,1.10
2022-08-23T10:38:34.982Z,0.65
2022-08-23T10:41:18.001Z,0.85
2022-08-23T10:43:48.264Z,1.20
2022-08-23T10:46:16.223Z,0.40
2022-08-23T10:48:48.979Z,0.90
2022-08-23T10:51:22.602Z,0.70
2022-08-23T10:53:59.750Z,0.50
2022-08-23T10:56:28.640Z,1.27
2022-08-23T10:58:59.677Z,1.35
2022-08-23T11:01:32.007Z,1.50
2022-08-23T11:04:06.432Z,1.40
2022-08-23T11:06:58.882Z,1.48
2022-08-23T11:09:31.291Z,1.13
2022-08-23T11:12:11.646Z,1.45
2022-08-23T11:14:41.773Z,1.30
2022-08-23T11:17:11.969Z,0.77
2022-08-23T11:19:50.508Z,0.88
2022-08-23T11:22:19.630Z,0.60
2022-08-23T11:24:56.342Z,0.90
2022-08-23T11:27:30.082Z,0.60
2022-08-23T11:29:58.017Z,0.88
2022-08-23T11:32:34.657Z,0.52
2022-08-23T11:35:09.499Z,1.20
2022-08-23T11:38:04.261Z,0.47
2022-08-23T11:40:56.544Z,0.80
2022-08-23T11:43:30.539Z,1.27
2022-08-23T11:46:13.548Z,0.95
2022-08-23T11:48:43.494Z,0.50
2022-08-23T11:51:23.281Z,0.52
2022-08-23T11:54:21.942Z,0.88
2022-08-23T11:57:00.316Z,1.00
2022-08-23T11:59:41.391Z,0.85
2022-08-23T12:02:32.163Z,1.30
2022-08-23T12:05:00.762Z,0.88
2022-08-23T12:07:43.310Z,1.05
2022-08-23T12:10:12.542Z,1.10
2022-08-23T12:12:46.653Z,0.90
2022-08-23T12:15:17.765Z,1.00
2022-08-23T12:18:04.133Z,1.00
2022-08-23T12:20:32.453Z,0.90
2022-08-23T12:23:07.851Z,0.85
2022-08-23T12:25:37.839Z,1.05
2022-08-23T12:28:09.256Z,0.85
2022-08-23T12:30:44.135Z,0.90
2022-08-23T12:33:20.624Z,0.80
2022-08-23T12:35:51.871Z,0.80
2022-08-23T12:38:22.469Z,0.57
2022-08-23T12:40:54.408Z,0.70
2022-08-23T12:43:23.413Z,0.70
2022-08-23T12:45:52.346Z,0.82
2022-08-23T12:48:21.369Z,0.80
2022-08-23T12:50:53.884Z,0.82
2022-08-23T12:53:27.529Z,0.55
2022-08-23T12:56:01.561Z,0.85
2022-08-23T12:58:33.464Z,0.90
2022-08-23T13:01:03.671Z,0.75
2022-08-23T13:03:33.949Z,0.93
2022-08-23T13:06:03.257Z,0.90
2022-08-23T13:08:35.040Z,1.08
2022-08-23T13:11:08.012Z,1.05
2022-08-23T13:13:38.429Z,1.08
2022-08-23T13:16:27.231Z,0.45
2022-08-23T13:18:56.151Z,1.20
2022-08-23T13:21:29.056Z,1.08
2022-08-23T13:24:00.939Z,1.00
2022-08-23T13:26:41.648Z,1.20
2022-08-23T13:29:11.532Z,1.17
2022-08-23T13:32:02.671Z,1.20
2022-08-23T13:34:35.253Z,1.02
2022-08-23T13:37:04.410Z,1.10
2022-08-23T13:39:33.210Z,1.08
2022-08-23T13:42:03.553Z,0.57
2022-08-23T13:44:32.104Z,1.10
2022-08-23T13:46:59.937Z,1.10
2022-08-23T13:49:29.450Z,0.93
2022-08-23T13:52:41.689Z,0.93
2022-08-23T13:54:57.065Z,1.10
2022-08-23T13:57:29.942Z,0.85
2022-08-23T13:59:59.453Z,0.80
2022-08-23T14:02:27.101Z,0.90
2022-08-23T14:04:54.795Z,0.68
2022-08-23T14:07:22.531Z,0.30
2022-08-23T14:09:54.804Z,1.05
2022-08-23T14:12:23.708Z,1.00
2022-08-23T14:14:52.812Z,1.00
2022-08-23T14:17:20.782Z,0.80
2022-08-23T14:20:32.915Z,1.00
2022-08-23T14:22:36.603Z,0.65
2022-08-23T14:25:04.372Z,0.77
2022-08-23T14:27:32.378Z,1.00
2022-08-23T14:30:01.365Z,0.90
2022-08-23T14:32:29.055Z,0.63
2022-08-23T14:34:56.707Z,0.82
2022-08-23T14:40:12.374Z,0.63
2022-08-23T14:42:40.102Z,1.00
2022-08-23T14:45:09.667Z,0.90
2022-08-23T14:47:37.339Z,1.23
2022-08-23T14:50:05.893Z,0.82
2022-08-23T14:52:33.710Z,0.55
2022-08-23T14:55:01.359Z,0.70
2022-08-23T14:57:29.126Z,0.60
2022-08-23T14:59:56.762Z,1.10
2022-08-23T15:02:26.672Z,1.10
2022-08-23T15:04:54.527Z,1.10
2022-08-23T15:07:22.652Z,0.90
2022-08-23T15:09:51.200Z,0.90
2022-08-23T15:15:09.041Z,1.05
2022-08-23T15:17:45.820Z,1.15
2022-08-23T15:20:13.931Z,0.70
2022-08-23T15:22:44.595Z,0.85
2022-08-23T15:25:13.251Z,1.00
2022-08-23T15:27:41.321Z,1.05
2022-08-23T15:30:09.613Z,0.82
2022-08-23T15:32:37.566Z,1.00
2022-08-23T15:35:07.276Z,0.95
2022-08-23T15:37:35.925Z,1.10
2022-08-23T15:40:04.168Z,0.93
2022-08-23T15:42:31.870Z,0.63
2022-08-23T15:44:59.593Z,0.80
2022-08-23T15:47:28.780Z,0.75
2022-08-23T15:49:56.982Z,0.77
2022-08-23T15:52:27.394Z,0.85
2022-08-23T15:54:55.040Z,0.70
2022-08-23T15:57:27.908Z,0.50
2022-08-23T15:59:55.784Z,0.90
2022-08-23T16:02:23.563Z,0.68
2022-08-23T16:04:51.232Z,0.90
2022-08-23T16:07:19.350Z,1.00
2022-08-23T16:09:48.383Z,0.98
2022-08-23T16:12:16.022Z,0.88
2022-08-23T16:14:43.702Z,0.80
2022-08-23T16:17:11.574Z,1.08
2022-08-23T16:19:39.233Z,0.80
2022-08-23T16:22:06.876Z,0.80
2022-08-23T16:24:34.872Z,0.80
2022-08-23T16:27:05.016Z,0.75
2022-08-23T16:29:35.856Z,1.00
2022-08-23T16:32:04.057Z,1.20
2022-08-23T16:34:31.756Z,1.00
2022-08-23T16:37:01.428Z,0.85
2022-08-23T16:39:29.573Z,1.05
2022-08-23T16:41:57.532Z,0.65
2022-08-23T16:44:26.557Z,1.10
2022-08-23T16:46:54.437Z,1.30
2022-08-23T16:49:22.283Z,1.10
2022-08-23T16:51:50.547Z,1.73
2022-08-23T16:54:19.075Z,0.80
2022-08-23T16:56:46.713Z,1.40
2022-08-23T16:59:14.585Z,1.00
2022-08-23T17:01:48.106Z,1.30
2022-08-23T17:04:15.920Z,1.02
2022-08-23T17:06:43.966Z,0.93
2022-08-23T17:09:12.112Z,1.10
2022-08-23T17:11:40.701Z,0.93
2022-08-23T17:14:08.672Z,1.23
2022-08-23T17:16:36.840Z,0.90
2022-08-23T17:19:06.034Z,1.25
2022-08-23T17:21:33.681Z,1.25
2022-08-23T17:24:02.321Z,1.38
2022-08-23T17:26:29.997Z,0.98
2022-08-23T17:28:57.652Z,1.70
2022-08-23T17:31:25.540Z,1.23
2022-08-23T17:33:53.306Z,1.30
2022-08-23T17:36:27.372Z,0.98
2022-08-23T17:38:56.270Z,1.23
2022-08-23T17:41:24.066Z,1.38
2022-08-23T17:43:52.202Z,1.02
2022-08-23T17:46:21.148Z,1.30
2022-08-23T17:48:48.806Z,1.05
2022-08-23T17:51:16.482Z,1.00
2022-08-23T17:53:46.485Z,0.90
2022-08-23T17:56:14.127Z,1.25
2022-08-23T17:58:42.017Z,1.05
2022-08-23T18:01:11.010Z,0.93
2022-08-23T18:03:38.905Z,1.13
2022-08-23T18:06:16.408Z,1.20
2022-08-23T18:08:47.217Z,1.40
2022-08-23T18:11:15.626Z,1.10
2022-08-23T18:13:43.343Z,1.40
2022-08-23T18:16:11.035Z,1.20
2022-08-23T18:18:39.581Z,1.10
2022-08-23T18:21:07.685Z,1.23
2022-08-23T18:23:35.396Z,1.05
2022-08-23T18:26:06.737Z,1.33
2022-08-23T18:28:33.452Z,1.20
2022-08-23T18:31:03.627Z,1.27
2022-08-23T18:33:46.487Z,1.27
2022-08-23T18:36:15.578Z,1.30
2022-08-23T18:38:43.272Z,1.10
2022-08-23T18:41:12.886Z,1.13
2022-08-23T18:43:40.953Z,0.90
2022-08-23T18:46:08.878Z,1.20
2022-08-23T18:48:36.934Z,1.10
2022-08-23T18:51:04.676Z,1.20
2022-08-23T18:53:32.727Z,1.10
2022-08-23T18:56:00.378Z,1.23
2022-08-23T18:58:29.536Z,1.40
2022-08-23T19:00:57.496Z,1.35
2022-08-23T19:03:25.251Z,1.30
2022-08-23T19:05:53.097Z,2.00
2022-08-23T19:08:20.745Z,1.30
2022-08-23T19:10:48.433Z,1.38
2022-08-23T19:13:16.082Z,1.52
2022-08-23T19:15:45.066Z,1.60
2022-08-23T19:18:13.300Z,1.50
2022-08-23T19:20:40.964Z,1.38
2022-08-23T19:23:08.648Z,1.60
2022-08-23T19:25:38.448Z,1.67
2022-08-23T19:28:06.835Z,1.45
2022-08-23T19:30:34.436Z,1.88
2022-08-23T19:33:04.081Z,1.60
2022-08-23T19:35:31.984Z,1.40
2022-08-23T19:37:59.831Z,1.50
2022-08-23T19:40:27.686Z,1.50
2022-08-23T19:42:55.364Z,1.40
2022-08-23T19:45:23.041Z,1.60
2022-08-23T19:47:50.723Z,1.30
2022-08-23T19:50:24.002Z,1.55
2022-08-23T19:52:52.114Z,1.75
2022-08-23T19:55:19.888Z,1.90
2022-08-23T19:57:47.535Z,1.52
2022-08-23T20:00:19.270Z,1.90
2022-08-23T20:02:48.170Z,1.40
2022-08-23T20:05:15.822Z,1.70
2022-08-23T20:07:44.977Z,1.63
2022-08-23T20:10:13.888Z,1.40
2022-08-23T20:12:42.620Z,1.30
2022-08-23T20:15:10.753Z,1.15
2022-08-23T20:17:39.355Z,1.20
2022-08-23T20:20:08.368Z,1.30
2022-08-23T20:22:53.356Z,1.20
2022-08-23T20:25:22.452Z,1.20
2022-08-23T20:27:50.156Z,1.63
2022-08-23T20:30:17.841Z,1.27
2022-08-23T20:32:45.473Z,1.77
2022-08-23T20:35:13.241Z,1.30
2022-08-23T20:37:40.940Z,1.35
2022-08-23T20:40:10.303Z,1.23
2022-08-23T20:42:39.665Z,1.25
2022-08-23T20:45:07.807Z,1.55
2022-08-23T20:47:36.528Z,1.30
2022-08-23T20:50:04.470Z,1.30
2022-08-23T20:52:34.717Z,1.75
2022-08-23T20:55:02.669Z,1.20
2022-08-23T20:57:31.943Z,1.20
2022-08-23T21:00:08.376Z,1.48
2022-08-23T21:02:36.492Z,1.55
2022-08-23T21:05:06.283Z,1.20
2022-08-23T21:07:34.316Z,1.08
2022-08-23T21:10:01.930Z,1.20
2022-08-23T21:12:29.566Z,1.58
2022-08-23T21:14:57.180Z,1.10
2022-08-23T21:17:26.185Z,1.08
2022-08-23T21:19:53.993Z,1.20
2022-08-23T21:22:21.909Z,1.10
2022-08-23T21:24:49.568Z,1.30
2022-08-23T21:27:18.119Z,1.67
2022-08-23T21:29:45.802Z,1.20
2022-08-23T21:32:13.452Z,1.40
2022-08-23T21:34:42.446Z,1.00
2022-08-23T21:37:10.121Z,1.35
2022-08-23T21:39:38.314Z,0.93
2022-08-23T21:42:15.449Z,1.20
2022-08-23T21:44:43.473Z,1.42
2022-08-23T21:47:11.110Z,1.15
2022-08-23T21:49:38.995Z,1.27
2022-08-23T21:52:08.098Z,1.08
2022-08-23T21:54:38.229Z,1.17
2022-08-23T21:57:07.915Z,1.10
2022-08-23T21:59:35.604Z,1.48
2022-08-23T22:02:03.334Z,0.95
2022-08-23T22:04:31.155Z,1.30
2022-08-23T22:07:00.108Z,1.20
2022-08-23T22:09:31.198Z,1.10
2022-08-23T22:12:00.150Z,1.13
2022-08-23T22:14:31.512Z,1.20
2022-08-23T22:16:59.793Z,1.20
2022-08-23T22:19:27.476Z,1.15
2022-08-23T22:21:55.156Z,1.17
2022-08-23T22:24:25.840Z,1.40
2022-08-23T22:26:55.987Z,1.10
2022-08-23T22:29:23.638Z,1.15
2022-08-23T22:31:51.629Z,1.23
2022-08-23T22:34:19.328Z,1.13
2022-08-23T22:36:51.363Z,1.50
2022-08-23T22:39:20.206Z,1.55
2022-08-23T22:41:47.874Z,1.15
2022-08-23T22:44:17.150Z,1.25
2022-08-23T22:46:45.083Z,1.10
2022-08-23T22:49:12.801Z,1.40
2022-08-23T22:51:41.623Z,1.30
2022-08-23T22:54:10.229Z,1.58
2022-08-23T22:56:38.602Z,1.55
2022-08-23T22:59:06.608Z,1.55
2022-08-23T23:01:37.098Z,1.80
2022-08-23T23:04:06.764Z,1.30
2022-08-23T23:06:35.736Z,1.50
2022-08-23T23:09:03.572Z,1.25
2022-08-23T23:11:31.256Z,1.30
2022-08-23T23:13:59.140Z,1.40
2022-08-23T23:16:27.801Z,0.95
2022-08-23T23:19:14.909Z,1.30
2022-08-23T23:21:43.726Z,1.23
2022-08-23T23:24:12.406Z,0.98
2022-08-23T23:26:40.382Z,1.10
2022-08-23T23:29:08.264Z,1.38
2022-08-23T23:31:36.384Z,1.42
2022-08-23T23:34:05.621Z,1.23
2022-08-23T23:36:33.316Z,1.23
2022-08-23T23:39:01.013Z,1.42
2022-08-23T23:41:29.756Z,1.30
2022-08-23T23:43:57.362Z,1.15
2022-08-23T23:46:25.446Z,1.25
2022-08-23T23:48:53.129Z,1.20
2022-08-23T23:51:24.633Z,1.30
2022-08-23T23:53:52.796Z,1.25
2022-08-23T23:56:22.087Z,1.33
2022-08-23T23:58:49.766Z,1.70
